createdAt,value
2023-10-31T00:00:23.274Z,13.45
2023-10-31T00:02:50.679Z,10.55
2023-10-31T00:05:20.058Z,10.85
2023-10-31T00:07:49.272Z,12.38
2023-10-31T00:10:16.813Z,13.02
2023-10-31T00:12:44.161Z,14.50
2023-10-31T00:15:11.598Z,14.27
2023-10-31T00:17:39.477Z,9.25
2023-10-31T00:20:07.720Z,16.17
2023-10-31T00:22:35.200Z,9.93
2023-10-31T00:25:02.661Z,8.48
2023-10-31T00:27:30.077Z,13.32
2023-10-31T00:29:57.440Z,14.73
2023-10-31T00:32:26.868Z,14.25
2023-10-31T00:34:54.208Z,19.48
2023-10-31T00:37:21.637Z,14.90
2023-10-31T00:39:49.072Z,16.95
2023-10-31T00:42:16.447Z,19.83
2023-10-31T00:44:43.785Z,17.63
2023-10-31T00:47:11.255Z,14.38
2023-10-31T00:49:38.566Z,13.15
2023-10-31T00:52:06.586Z,17.25
2023-10-31T00:54:33.887Z,18.15
2023-10-31T00:57:01.185Z,19.70
2023-10-31T00:59:28.760Z,27.00
2023-10-31T01:01:56.205Z,25.08
2023-10-31T01:04:23.601Z,21.75
2023-10-31T01:06:50.881Z,21.38
2023-10-31T01:09:18.241Z,22.42
2023-10-31T01:11:45.555Z,26.73
2023-10-31T01:14:12.924Z,30.02
2023-10-31T01:16:41.792Z,22.95
2023-10-31T01:19:09.143Z,24.20
2023-10-31T01:21:36.452Z,25.00
2023-10-31T01:24:04.003Z,28.65
2023-10-31T01:26:31.410Z,28.05
2023-10-31T01:28:59.458Z,26.80
2023-10-31T01:31:26.836Z,28.48
2023-10-31T01:33:54.313Z,34.97
2023-10-31T01:36:28.646Z,27.38
2023-10-31T01:38:55.958Z,34.40
2023-10-31T01:41:23.249Z,39.25
2023-10-31T01:43:50.632Z,34.30
2023-10-31T01:46:17.983Z,30.70
2023-10-31T01:48:45.418Z,30.27
2023-10-31T01:51:12.997Z,30.02
2023-10-31T01:53:40.321Z,22.13
2023-10-31T01:56:08.705Z,19.85
2023-10-31T01:58:37.447Z,18.85
2023-10-31T02:01:06.870Z,18.90
2023-10-31T02:03:34.619Z,16.90
2023-10-31T02:06:02.330Z,13.80
2023-10-31T02:08:32.865Z,13.98
2023-10-31T02:11:00.233Z,11.80
2023-10-31T02:13:29.621Z,8.18
2023-10-31T02:15:56.981Z,4.97
2023-10-31T02:18:24.377Z,5.97
2023-10-31T02:20:51.673Z,3.53
2023-10-31T02:23:19.046Z,4.00
2023-10-31T02:25:46.353Z,5.95
2023-10-31T02:28:13.683Z,3.55
2023-10-31T02:30:41.688Z,5.45
2023-10-31T02:33:09.143Z,6.45
2023-10-31T02:35:39.748Z,4.93
2023-10-31T02:38:12.603Z,3.92
2023-10-31T02:43:07.433Z,6.32
2023-10-31T02:45:34.794Z,4.07
2023-10-31T02:48:02.227Z,5.55
2023-10-31T02:50:29.613Z,4.43
2023-10-31T02:52:57.070Z,5.00
2023-10-31T02:55:24.498Z,2.40
2023-10-31T02:57:51.779Z,4.28
2023-10-31T03:00:19.448Z,4.30
2023-10-31T03:02:46.947Z,6.60
2023-10-31T03:05:14.355Z,4.70
2023-10-31T03:07:41.794Z,4.20
2023-10-31T03:10:09.293Z,6.18
2023-10-31T03:12:36.665Z,5.00
2023-10-31T03:15:04.988Z,3.58
2023-10-31T03:17:32.414Z,5.05
2023-10-31T03:19:59.859Z,5.10
2023-10-31T03:22:27.244Z,4.00
2023-10-31T03:24:54.574Z,6.00
2023-10-31T03:27:22.129Z,5.53
2023-10-31T03:29:49.565Z,5.15
2023-10-31T03:32:17.005Z,3.95
2023-10-31T03:34:44.366Z,2.80
2023-10-31T03:37:11.724Z,4.45
2023-10-31T03:39:39.140Z,2.65
2023-10-31T03:42:06.973Z,2.80
2023-10-31T03:44:36.994Z,3.13
2023-10-31T03:47:04.480Z,6.25
2023-10-31T03:49:31.911Z,2.72
2023-10-31T03:51:59.356Z,4.15
2023-10-31T03:54:26.640Z,5.43
2023-10-31T03:56:53.974Z,6.93
2023-10-31T03:59:21.293Z,6.38
2023-10-31T04:01:48.631Z,7.00
2023-10-31T04:04:16.009Z,5.40
2023-10-31T04:06:44.718Z,4.78
2023-10-31T04:09:12.076Z,6.97
2023-10-31T04:11:40.638Z,6.03
2023-10-31T04:14:11.057Z,4.43
2023-10-31T04:16:46.718Z,2.33
2023-10-31T04:19:17.144Z,6.22
2023-10-31T04:21:44.419Z,6.05
2023-10-31T04:24:11.731Z,5.30
2023-10-31T04:26:40.017Z,6.50
2023-10-31T04:29:07.391Z,6.22
2023-10-31T04:31:41.681Z,6.82
2023-10-31T04:34:11.670Z,4.90
2023-10-31T04:36:39.017Z,5.22
2023-10-31T04:39:08.385Z,5.25
2023-10-31T04:41:35.731Z,5.90
2023-10-31T04:44:04.083Z,5.30
2023-10-31T04:46:31.494Z,4.47
2023-10-31T04:48:58.936Z,8.35
2023-10-31T04:51:26.346Z,4.35
2023-10-31T04:53:53.656Z,5.28
2023-10-31T04:56:21.445Z,5.50
2023-10-31T04:58:49.173Z,5.53
2023-10-31T05:01:18.225Z,4.03
2023-10-31T05:03:46.490Z,7.45
2023-10-31T05:06:14.710Z,7.00
2023-10-31T05:08:42.288Z,5.93
2023-10-31T05:11:09.937Z,2.92
2023-10-31T05:13:37.554Z,3.33
2023-10-31T05:16:05.414Z,3.50
2023-10-31T05:18:32.746Z,3.47
2023-10-31T05:21:00.126Z,3.13
2023-10-31T05:23:27.486Z,3.30
2023-10-31T05:25:54.844Z,4.50
2023-10-31T05:28:22.236Z,2.50
2023-10-31T05:30:49.700Z,3.25
2023-10-31T05:33:20.764Z,3.28
2023-10-31T05:35:48.187Z,5.13
2023-10-31T05:38:15.517Z,6.90
2023-10-31T05:40:42.873Z,5.53
2023-10-31T05:43:10.191Z,5.22
2023-10-31T05:45:40.742Z,6.00
2023-10-31T05:48:08.456Z,7.13
2023-10-31T05:50:35.738Z,3.80
2023-10-31T05:53:03.529Z,5.35
2023-10-31T05:55:30.870Z,3.53
2023-10-31T05:57:58.158Z,7.47
2023-10-31T06:00:25.489Z,3.88
2023-10-31T06:02:52.848Z,4.05
2023-10-31T06:05:20.433Z,3.28
2023-10-31T06:07:47.911Z,4.47
2023-10-31T06:10:15.409Z,4.45
2023-10-31T06:12:42.744Z,4.68
2023-10-31T06:15:10.391Z,5.20
2023-10-31T06:17:38.741Z,4.45
2023-10-31T06:20:10.714Z,3.40
2023-10-31T06:22:38.137Z,8.37
2023-10-31T06:25:06.103Z,9.63
2023-10-31T06:27:33.585Z,7.15
2023-10-31T06:30:11.967Z,9.52
2023-10-31T06:32:48.420Z,11.45
2023-10-31T06:35:15.848Z,11.68
2023-10-31T06:37:43.821Z,15.00
2023-10-31T06:40:11.658Z,12.63
2023-10-31T06:42:38.997Z,18.25
2023-10-31T06:45:06.778Z,18.58
2023-10-31T06:47:34.117Z,15.80
2023-10-31T06:50:01.684Z,15.88
2023-10-31T06:52:29.018Z,18.23
2023-10-31T06:54:56.333Z,18.88
2023-10-31T06:57:23.616Z,13.85
2023-10-31T06:59:50.939Z,18.25
2023-10-31T07:02:18.352Z,16.58
2023-10-31T07:04:45.764Z,17.98
2023-10-31T07:07:13.069Z,14.48
2023-10-31T07:09:42.834Z,13.90
2023-10-31T07:12:11.708Z,16.88
2023-10-31T07:14:39.106Z,14.10
2023-10-31T07:17:06.493Z,11.63
2023-10-31T07:19:33.807Z,16.92
2023-10-31T07:22:01.107Z,16.50
2023-10-31T07:24:29.684Z,17.30
2023-10-31T07:26:58.191Z,17.65
2023-10-31T07:29:25.560Z,19.95
2023-10-31T07:31:52.992Z,22.88
2023-10-31T07:34:20.717Z,19.20
2023-10-31T07:36:48.056Z,26.88
2023-10-31T07:39:15.731Z,24.48
2023-10-31T07:41:43.200Z,26.95
2023-10-31T07:44:10.507Z,24.73
2023-10-31T07:46:37.946Z,24.67
2023-10-31T07:49:06.890Z,30.05
2023-10-31T07:51:34.914Z,29.17
2023-10-31T07:54:03.123Z,33.15
2023-10-31T07:56:30.801Z,33.33
2023-10-31T07:58:58.740Z,30.05
2023-10-31T08:01:26.505Z,28.67
2023-10-31T08:03:54.056Z,34.65
2023-10-31T08:06:21.639Z,33.63
2023-10-31T08:08:49.571Z,30.23
2023-10-31T08:11:16.936Z,33.45
2023-10-31T08:13:45.950Z,33.83
2023-10-31T08:16:22.603Z,31.98
2023-10-31T08:18:50.564Z,27.10
2023-10-31T08:21:17.994Z,29.13
2023-10-31T08:23:47.391Z,24.27
2023-10-31T08:26:15.001Z,23.00
2023-10-31T08:28:42.411Z,27.13
2023-10-31T08:31:09.847Z,21.83
2023-10-31T08:33:37.233Z,27.85
2023-10-31T08:36:05.959Z,21.17
2023-10-31T08:38:33.318Z,19.73
2023-10-31T08:41:00.939Z,17.77
2023-10-31T08:43:28.624Z,18.52
2023-10-31T08:45:55.964Z,19.63
2023-10-31T08:48:23.378Z,20.55
2023-10-31T08:50:52.473Z,19.70
2023-10-31T08:53:23.744Z,18.50
2023-10-31T08:55:51.241Z,23.20
2023-10-31T08:58:19.530Z,20.15
2023-10-31T09:00:46.866Z,17.98
2023-10-31T09:03:14.386Z,15.32
2023-10-31T09:05:42.016Z,16.13
2023-10-31T09:08:11.602Z,13.63
2023-10-31T09:10:39.700Z,12.90
2023-10-31T09:13:07.306Z,13.15
2023-10-31T09:15:34.624Z,13.27
2023-10-31T09:18:02.181Z,13.93
2023-10-31T09:20:31.048Z,16.45
2023-10-31T09:22:58.543Z,15.27
2023-10-31T09:25:25.910Z,14.68
2023-10-31T09:28:00.052Z,15.95
2023-10-31T09:30:27.781Z,17.08
2023-10-31T09:32:55.266Z,14.23
2023-10-31T09:35:22.836Z,13.98
2023-10-31T09:37:50.426Z,15.38
2023-10-31T09:40:17.953Z,16.00
2023-10-31T09:42:48.691Z,18.73
2023-10-31T09:45:16.223Z,19.10
2023-10-31T09:47:44.217Z,19.35
2023-10-31T09:50:12.354Z,20.98
2023-10-31T09:52:40.193Z,20.63
2023-10-31T09:55:08.526Z,21.10
2023-10-31T09:57:36.094Z,19.83
2023-10-31T10:00:03.537Z,20.55
2023-10-31T10:02:30.945Z,24.10
2023-10-31T10:04:58.635Z,21.08
2023-10-31T10:07:26.013Z,23.90
2023-10-31T10:09:53.353Z,28.20
2023-10-31T10:12:21.182Z,26.80
2023-10-31T10:14:48.622Z,31.05
2023-10-31T10:17:22.094Z,30.15
2023-10-31T10:19:54.462Z,35.95
2023-10-31T10:22:22.063Z,36.10
2023-10-31T10:24:49.395Z,40.65
2023-10-31T10:27:16.995Z,42.25
2023-10-31T10:29:45.861Z,41.15
2023-10-31T10:32:13.881Z,49.88
2023-10-31T10:34:43.970Z,40.65
2023-10-31T10:37:11.503Z,38.33
2023-10-31T10:39:39.360Z,46.13
2023-10-31T10:42:11.063Z,44.90
2023-10-31T10:44:39.794Z,46.08
2023-10-31T10:47:08.369Z,43.22
2023-10-31T10:49:38.654Z,45.22
2023-10-31T10:52:22.373Z,48.00
2023-10-31T10:55:14.640Z,44.20
2023-10-31T10:57:58.052Z,43.22
2023-10-31T11:00:26.263Z,39.80
2023-10-31T11:02:55.417Z,42.30
2023-10-31T11:05:24.131Z,43.63
2023-10-31T11:07:52.948Z,38.35
2023-10-31T11:10:20.552Z,41.20
2023-10-31T11:12:48.004Z,35.95
2023-10-31T11:15:17.689Z,40.60
2023-10-31T11:17:46.853Z,35.60
2023-10-31T11:20:16.895Z,37.03
2023-10-31T11:22:46.332Z,40.95
2023-10-31T11:25:31.594Z,36.00
2023-10-31T11:28:16.672Z,32.35
2023-10-31T11:30:44.847Z,31.50
2023-10-31T11:33:16.917Z,29.60
2023-10-31T11:35:47.134Z,35.10
2023-10-31T11:38:14.670Z,34.90
2023-10-31T11:40:51.375Z,33.60
2023-10-31T11:43:18.695Z,39.65
2023-10-31T11:45:49.930Z,39.55
2023-10-31T11:48:17.528Z,32.50
2023-10-31T11:50:45.087Z,36.85
2023-10-31T11:53:18.146Z,35.83
2023-10-31T11:55:49.103Z,38.88
2023-10-31T11:58:20.983Z,41.30
2023-10-31T12:00:50.293Z,39.43
2023-10-31T12:03:19.396Z,48.58
2023-10-31T12:05:57.577Z,51.25
2023-10-31T12:08:44.647Z,51.22
2023-10-31T12:11:21.621Z,49.83
2023-10-31T12:13:59.542Z,50.13
2023-10-31T12:16:28.893Z,52.00
2023-10-31T12:19:01.129Z,54.60
2023-10-31T12:21:46.087Z,61.00
2023-10-31T12:24:15.036Z,51.47
2023-10-31T12:26:43.213Z,51.75
2023-10-31T12:29:21.364Z,50.33
2023-10-31T12:31:56.210Z,47.70
2023-10-31T12:34:25.339Z,42.97
2023-10-31T12:36:54.592Z,42.80
2023-10-31T12:39:29.987Z,38.67
2023-10-31T12:41:59.472Z,36.20
2023-10-31T12:44:29.009Z,34.95
2023-10-31T12:46:57.423Z,37.58
2023-10-31T12:49:25.531Z,33.15
2023-10-31T12:52:04.764Z,36.38
2023-10-31T12:54:36.927Z,36.67
2023-10-31T12:57:06.435Z,30.83
2023-10-31T12:59:39.195Z,26.67
2023-10-31T13:02:08.187Z,26.52
2023-10-31T13:04:36.045Z,27.70
2023-10-31T13:07:05.484Z,25.10
2023-10-31T13:09:36.967Z,24.45
2023-10-31T13:12:06.961Z,27.60
2023-10-31T13:14:35.022Z,29.63
2023-10-31T13:17:06.933Z,29.80
2023-10-31T13:19:34.417Z,31.60
2023-10-31T13:22:01.806Z,30.65
2023-10-31T13:24:29.175Z,33.97
2023-10-31T13:26:56.753Z,33.88
2023-10-31T13:29:26.993Z,33.83
2023-10-31T13:31:54.667Z,33.65
2023-10-31T13:34:22.144Z,39.88
2023-10-31T13:36:53.051Z,34.83
2023-10-31T13:39:22.538Z,36.88
2023-10-31T13:41:50.114Z,33.75
2023-10-31T13:44:17.486Z,31.33
2023-10-31T13:46:44.813Z,33.20
2023-10-31T13:49:13.581Z,31.75
2023-10-31T13:51:40.914Z,37.13
2023-10-31T13:54:08.271Z,30.95
2023-10-31T13:56:36.363Z,29.58
2023-10-31T13:59:03.953Z,26.80
2023-10-31T14:01:31.464Z,28.85
2023-10-31T14:03:58.990Z,28.63
2023-10-31T14:06:31.217Z,29.23
2023-10-31T14:09:00.132Z,29.63
2023-10-31T14:11:28.055Z,27.88
2023-10-31T14:13:55.636Z,28.92
2023-10-31T14:16:23.138Z,29.60
2023-10-31T14:18:50.682Z,24.50
2023-10-31T14:21:18.078Z,27.13
2023-10-31T14:23:55.874Z,24.98
2023-10-31T14:26:25.765Z,25.63
2023-10-31T14:28:53.261Z,27.40
2023-10-31T14:31:23.819Z,31.33
2023-10-31T14:33:51.705Z,22.67
2023-10-31T14:36:19.087Z,31.10
2023-10-31T14:38:46.425Z,24.45
2023-10-31T14:41:15.588Z,23.50
2023-10-31T14:43:43.086Z,22.88
2023-10-31T14:46:10.703Z,23.58
2023-10-31T14:48:38.147Z,23.67
2023-10-31T14:51:06.005Z,28.00
2023-10-31T14:53:33.384Z,25.98
2023-10-31T14:56:00.783Z,25.60
2023-10-31T14:58:28.299Z,24.88
2023-10-31T15:00:56.405Z,26.73
2023-10-31T15:03:23.870Z,26.42
2023-10-31T15:05:51.646Z,22.80
2023-10-31T15:08:19.025Z,22.85
2023-10-31T15:10:46.984Z,22.67
2023-10-31T15:13:14.283Z,24.90
2023-10-31T15:15:41.703Z,17.73
2023-10-31T15:18:09.223Z,21.48
2023-10-31T15:20:36.626Z,18.67
2023-10-31T15:23:04.660Z,19.15
2023-10-31T15:25:32.036Z,19.77
2023-10-31T15:27:59.423Z,20.38
2023-10-31T15:30:26.766Z,18.45
2023-10-31T15:32:54.169Z,19.35
2023-10-31T15:35:21.717Z,21.02
2023-10-31T15:37:49.993Z,20.48
2023-10-31T15:40:17.323Z,24.08
2023-10-31T15:42:44.621Z,20.27
2023-10-31T15:45:11.977Z,26.23
2023-10-31T15:47:39.440Z,25.05
2023-10-31T15:50:07.601Z,24.40
2023-10-31T15:52:34.906Z,25.98
2023-10-31T15:55:02.844Z,23.30
2023-10-31T15:57:30.660Z,24.48
2023-10-31T15:59:58.775Z,23.45
2023-10-31T16:02:27.134Z,24.58
2023-10-31T16:04:54.637Z,25.17
2023-10-31T16:07:22.228Z,22.95
2023-10-31T16:09:49.893Z,24.08
2023-10-31T16:12:17.247Z,25.15
2023-10-31T16:14:44.665Z,20.90
2023-10-31T16:17:12.391Z,22.45
2023-10-31T16:19:39.993Z,20.70
2023-10-31T16:22:07.912Z,23.67
2023-10-31T16:24:35.698Z,25.00
2023-10-31T16:27:02.997Z,23.92
2023-10-31T16:29:30.380Z,23.27
2023-10-31T16:31:57.787Z,22.17
2023-10-31T16:34:25.176Z,26.52
2023-10-31T16:36:52.515Z,22.35
2023-10-31T16:39:19.924Z,22.35
2023-10-31T16:41:47.540Z,22.65
2023-10-31T16:44:14.946Z,24.15
2023-10-31T16:46:49.385Z,24.48
2023-10-31T16:49:18.511Z,28.40
2023-10-31T16:51:45.907Z,28.25
2023-10-31T16:54:14.638Z,30.15
2023-10-31T16:56:41.955Z,27.58
2023-10-31T16:59:09.335Z,31.10
2023-10-31T17:01:37.820Z,30.67
2023-10-31T17:04:05.620Z,27.13
2023-10-31T17:06:33.294Z,26.73
2023-10-31T17:09:00.715Z,31.73
2023-10-31T17:11:28.116Z,29.15
2023-10-31T17:13:55.522Z,26.38
2023-10-31T17:16:22.998Z,25.42
2023-10-31T17:18:50.760Z,23.40
2023-10-31T17:21:18.221Z,27.17
2023-10-31T17:23:46.460Z,21.10
2023-10-31T17:26:14.087Z,23.92
2023-10-31T17:28:41.435Z,24.63
2023-10-31T17:31:09.286Z,28.17
2023-10-31T17:33:36.982Z,23.65
2023-10-31T17:36:04.797Z,25.80
2023-10-31T17:38:32.141Z,28.27
2023-10-31T17:40:59.515Z,26.42
2023-10-31T17:43:27.693Z,28.13
2023-10-31T17:45:55.016Z,26.02
2023-10-31T17:48:22.392Z,29.85
2023-10-31T17:50:49.871Z,28.67
2023-10-31T17:53:17.455Z,31.77
2023-10-31T17:55:47.018Z,27.20
2023-10-31T17:58:14.429Z,27.95
2023-10-31T18:00:41.793Z,31.83
2023-10-31T18:03:09.365Z,26.65
2023-10-31T18:05:36.802Z,27.15
2023-10-31T18:08:04.304Z,31.60
2023-10-31T18:10:31.691Z,27.67
2023-10-31T18:13:01.782Z,29.83
2023-10-31T18:15:30.446Z,32.97
2023-10-31T18:17:57.925Z,29.77
2023-10-31T18:20:25.346Z,27.35
2023-10-31T18:22:52.747Z,26.05
2023-10-31T18:25:21.064Z,21.60
2023-10-31T18:27:48.611Z,25.08
2023-10-31T18:30:16.169Z,29.38
2023-10-31T18:32:43.668Z,25.75
2023-10-31T18:35:11.212Z,28.30
2023-10-31T18:37:38.621Z,31.08
2023-10-31T18:40:06.668Z,30.75
2023-10-31T18:42:36.038Z,33.17
2023-10-31T18:45:03.845Z,31.60
2023-10-31T18:47:31.356Z,30.60
2023-10-31T18:49:58.777Z,31.73
2023-10-31T18:52:26.114Z,28.27
2023-10-31T18:54:54.735Z,29.88
2023-10-31T18:57:23.202Z,31.40
2023-10-31T18:59:53.907Z,31.02
2023-10-31T19:02:21.602Z,30.73
2023-10-31T19:04:48.998Z,27.88
2023-10-31T19:07:16.466Z,33.35
2023-10-31T19:09:43.866Z,27.98
2023-10-31T19:12:11.273Z,29.50
2023-10-31T19:14:38.771Z,28.58
2023-10-31T19:17:08.031Z,32.25
2023-10-31T19:19:35.765Z,27.83
2023-10-31T19:22:03.222Z,34.15
2023-10-31T19:24:30.677Z,33.75
2023-10-31T19:26:58.470Z,30.25
2023-10-31T19:29:26.042Z,32.67
2023-10-31T19:31:53.900Z,35.25
2023-10-31T19:34:21.241Z,29.98
2023-10-31T19:36:48.670Z,29.83
2023-10-31T19:39:16.111Z,39.50
2023-10-31T19:41:43.559Z,31.15
2023-10-31T19:44:10.941Z,28.55
2023-10-31T19:46:39.613Z,31.00
2023-10-31T19:49:07.001Z,31.13
2023-10-31T19:51:34.437Z,31.27
2023-10-31T19:54:01.934Z,29.10
2023-10-31T19:56:29.603Z,26.67
2023-10-31T19:58:58.627Z,29.38
2023-10-31T20:01:26.997Z,25.70
2023-10-31T20:03:54.982Z,23.63
2023-10-31T20:06:22.489Z,23.98
2023-10-31T20:08:57.815Z,23.83
2023-10-31T20:11:27.868Z,23.50
2023-10-31T20:13:55.588Z,22.65
2023-10-31T20:16:23.012Z,21.70
2023-10-31T20:18:50.370Z,20.40
2023-10-31T20:21:18.267Z,20.52
2023-10-31T20:23:45.911Z,24.88
2023-10-31T20:26:17.182Z,20.77
2023-10-31T20:28:44.751Z,17.70
2023-10-31T20:31:12.109Z,20.25
2023-10-31T20:33:41.328Z,23.95
2023-10-31T20:36:08.969Z,16.98
2023-10-31T20:38:36.434Z,15.68
2023-10-31T20:41:03.979Z,17.67
2023-10-31T20:43:31.664Z,21.63
2023-10-31T20:45:59.162Z,18.92
2023-10-31T20:48:26.734Z,18.50
2023-10-31T20:50:54.216Z,14.75
2023-10-31T20:53:21.906Z,20.60
2023-10-31T20:55:49.238Z,17.95
2023-10-31T20:58:16.681Z,17.45
2023-10-31T21:00:44.242Z,17.42
2023-10-31T21:03:13.250Z,19.52
2023-10-31T21:05:40.811Z,18.77
2023-10-31T21:08:08.233Z,18.95
2023-10-31T21:10:35.729Z,20.38
2023-10-31T21:13:03.643Z,18.95
2023-10-31T21:15:31.684Z,18.17
2023-10-31T21:17:59.218Z,19.88
2023-10-31T21:20:26.690Z,15.98
2023-10-31T21:22:54.185Z,19.52
2023-10-31T21:25:21.660Z,20.23
2023-10-31T21:27:50.187Z,20.23
2023-10-31T21:30:17.873Z,14.43
2023-10-31T21:32:45.375Z,17.73
2023-10-31T21:35:14.803Z,16.75
2023-10-31T21:37:42.379Z,25.52
2023-10-31T21:40:10.416Z,14.05
2023-10-31T21:42:39.976Z,21.17
2023-10-31T21:45:08.306Z,15.23
2023-10-31T21:47:35.849Z,13.25
2023-10-31T21:50:03.796Z,20.42
2023-10-31T21:52:31.224Z,19.27
2023-10-31T21:54:58.532Z,17.02
2023-10-31T21:57:26.128Z,15.45
2023-10-31T21:59:53.642Z,16.85
2023-10-31T22:02:21.138Z,20.38
2023-10-31T22:04:48.498Z,17.75
2023-10-31T22:07:15.873Z,16.88
2023-10-31T22:09:43.245Z,22.73
2023-10-31T22:12:11.186Z,18.48
2023-10-31T22:14:38.591Z,16.95
2023-10-31T22:17:06.449Z,19.77
2023-10-31T22:19:33.972Z,18.98
2023-10-31T22:22:01.301Z,17.70
2023-10-31T22:24:28.612Z,18.75
2023-10-31T22:26:55.976Z,17.05
2023-10-31T22:29:23.356Z,18.25
2023-10-31T22:31:50.820Z,14.13
2023-10-31T22:34:19.072Z,19.70
2023-10-31T22:36:46.439Z,15.60
2023-10-31T22:39:13.726Z,14.63
2023-10-31T22:41:42.001Z,15.43
2023-10-31T22:44:10.024Z,20.05
2023-10-31T22:46:37.523Z,15.13
2023-10-31T22:49:05.334Z,16.55
2023-10-31T22:51:32.754Z,14.23
2023-10-31T22:54:00.087Z,14.85
2023-10-31T22:56:27.513Z,10.93
2023-10-31T22:58:54.857Z,14.38
2023-10-31T23:01:22.315Z,15.32
2023-10-31T23:03:50.682Z,13.27
2023-10-31T23:06:18.205Z,13.35
2023-10-31T23:08:46.345Z,10.35
2023-10-31T23:11:16.625Z,15.35
2023-10-31T23:13:43.978Z,10.07
2023-10-31T23:16:11.351Z,12.77
2023-10-31T23:18:40.400Z,10.63
2023-10-31T23:21:07.786Z,14.38
2023-10-31T23:23:35.252Z,12.90
2023-10-31T23:26:02.680Z,14.88
2023-10-31T23:28:30.029Z,20.40
2023-10-31T23:30:58.833Z,13.80
2023-10-31T23:33:28.403Z,13.25
2023-10-31T23:35:56.585Z,12.32
2023-10-31T23:38:24.159Z,9.75
2023-10-31T23:40:51.477Z,14.40
2023-10-31T23:43:18.913Z,15.38
2023-10-31T23:45:46.353Z,12.20
2023-10-31T23:48:13.700Z,16.58
2023-10-31T23:50:41.517Z,14.60
2023-10-31T23:53:08.985Z,13.27
2023-10-31T23:55:36.425Z,19.88
2023-10-31T23:58:04.090Z,16.58
